createdAt,value
2019-04-06T00:01:57.580Z,99.90
2019-04-06T00:07:01.286Z,99.90
2019-04-06T00:12:05.053Z,99.90
2019-04-06T00:17:08.829Z,99.90
2019-04-06T00:22:12.546Z,99.90
2019-04-06T00:27:16.272Z,99.90
2019-04-06T00:32:34.038Z,99.90
2019-04-06T00:37:37.737Z,99.90
2019-04-06T00:42:41.433Z,99.90
2019-04-06T00:47:45.157Z,99.90
2019-04-06T00:52:48.891Z,99.90
2019-04-06T00:57:52.612Z,99.90
2019-04-06T01:02:56.378Z,99.90
2019-04-06T01:08:00.317Z,99.90
2019-04-06T01:13:04.184Z,99.90
2019-04-06T01:18:07.871Z,99.80
2019-04-06T01:23:11.837Z,99.90
2019-04-06T01:28:15.675Z,99.90
2019-04-06T01:33:19.441Z,99.90
2019-04-06T01:38:23.421Z,99.80
2019-04-06T01:43:27.374Z,99.70
2019-04-06T01:48:31.134Z,99.50
2019-04-06T01:53:34.833Z,99.30
2019-04-06T01:58:38.538Z,99.20
2019-04-06T02:03:42.266Z,99.20
2019-04-06T02:08:45.982Z,99.30
2019-04-06T02:13:49.704Z,99.50
2019-04-06T02:18:53.663Z,99.40
2019-04-06T02:23:57.375Z,99.40
2019-04-06T02:29:01.191Z,99.40
2019-04-06T02:34:14.643Z,99.30
2019-04-06T02:39:36.360Z,99.20
2019-04-06T02:44:40.186Z,99.20
2019-04-06T02:49:43.888Z,99.10
2019-04-06T02:54:47.590Z,99.20
2019-04-06T02:59:51.410Z,99.10
2019-04-06T03:04:55.184Z,99.10
2019-04-06T03:09:58.983Z,99.10
2019-04-06T03:15:02.832Z,99.10
2019-04-06T03:20:06.901Z,99.00
2019-04-06T03:25:11.092Z,98.90
2019-04-06T03:30:15.628Z,98.90
2019-04-06T03:35:19.703Z,99.00
2019-04-06T03:40:23.457Z,99.10
2019-04-06T03:45:27.196Z,99.20
2019-04-06T03:50:31.005Z,99.30
2019-04-06T03:55:34.743Z,99.40
2019-04-06T04:00:38.714Z,99.30
2019-04-06T04:05:42.390Z,99.40
2019-04-06T04:10:47.855Z,99.40
2019-04-06T04:15:51.719Z,99.40
2019-04-06T04:20:56.170Z,99.40
2019-04-06T04:26:00.049Z,99.30
2019-04-06T04:31:03.926Z,99.40
2019-04-06T04:36:07.792Z,99.50
2019-04-06T04:41:12.046Z,99.60
2019-04-06T04:46:15.865Z,99.40
2019-04-06T04:51:19.587Z,99.50
2019-04-06T04:56:23.393Z,99.50
2019-04-06T05:01:27.359Z,99.60
2019-04-06T05:06:31.667Z,99.70
2019-04-06T05:11:35.775Z,99.80
2019-04-06T05:16:39.657Z,99.60
2019-04-06T05:21:43.742Z,99.60
2019-04-06T05:26:47.797Z,98.20
2019-04-06T05:31:51.611Z,97.60
2019-04-06T05:36:55.318Z,97.00
2019-04-06T05:41:59.038Z,97.40
2019-04-06T05:47:03.118Z,97.60
2019-04-06T05:52:07.410Z,97.60
2019-04-06T05:57:11.254Z,97.40
2019-04-06T06:02:14.975Z,96.60
2019-04-06T06:07:18.694Z,96.40
2019-04-06T06:12:22.474Z,94.60
2019-04-06T06:17:26.215Z,93.10
2019-04-06T06:22:29.939Z,91.90
2019-04-06T06:27:33.969Z,91.40
2019-04-06T06:32:37.925Z,91.10
2019-04-06T06:37:41.825Z,89.50
2019-04-06T06:42:45.643Z,89.60
2019-04-06T06:47:49.766Z,89.30
2019-04-06T06:52:53.498Z,86.70
2019-04-06T06:57:57.223Z,85.90
2019-04-06T07:03:01.083Z,84.40
2019-04-06T07:08:05.271Z,82.00
2019-04-06T07:13:09.003Z,81.80
2019-04-06T07:18:13.154Z,81.70
2019-04-06T07:23:16.866Z,81.00
2019-04-06T07:28:20.863Z,79.20
2019-04-06T07:33:24.675Z,79.80
2019-04-06T07:38:28.408Z,79.00
2019-04-06T07:43:32.221Z,78.00
2019-04-06T07:48:36.003Z,78.70
2019-04-06T07:53:39.720Z,81.60
2019-04-06T07:58:49.551Z,76.70
2019-04-06T08:03:48.955Z,76.10
2019-04-06T08:08:52.878Z,75.40
2019-04-06T08:13:56.597Z,77.60
2019-04-06T08:19:00.321Z,76.00
2019-04-06T08:24:04.183Z,73.00
2019-04-06T08:29:08.054Z,74.00
2019-04-06T08:34:13.756Z,73.10
2019-04-06T08:39:17.349Z,71.20
2019-04-06T08:44:21.353Z,69.10
2019-04-06T08:49:25.243Z,63.00
2019-04-06T08:54:30.534Z,63.00
2019-04-06T08:59:34.413Z,69.00
2019-04-06T09:04:38.673Z,64.90
2019-04-06T09:09:42.613Z,59.00
2019-04-06T09:14:46.380Z,62.60
2019-04-06T09:19:50.232Z,61.00
2019-04-06T09:24:54.169Z,64.80
2019-04-06T09:29:58.167Z,62.60
2019-04-06T09:35:02.172Z,57.40
2019-04-06T09:40:06.421Z,55.50
2019-04-06T09:45:28.463Z,55.50
2019-04-06T09:51:00.665Z,53.70
2019-04-06T09:56:23.980Z,53.70
2019-04-06T10:01:41.834Z,55.70
2019-04-06T10:06:54.188Z,53.40
2019-04-06T10:12:18.855Z,55.40
2019-04-06T10:17:40.743Z,55.20
2019-04-06T10:22:53.590Z,53.80
2019-04-06T10:28:08.197Z,56.40
2019-04-06T10:33:19.234Z,52.50
2019-04-06T10:38:35.496Z,53.40
2019-04-06T10:44:05.053Z,51.60
2019-04-06T10:49:45.297Z,49.50
2019-04-06T10:55:10.362Z,49.30
2019-04-06T11:00:28.880Z,47.80
2019-04-06T11:06:00.835Z,48.20
2019-04-06T11:11:27.109Z,50.00
2019-04-06T11:16:50.577Z,49.20
2019-04-06T11:22:09.754Z,47.00
2019-04-06T11:27:33.445Z,49.90
2019-04-06T11:32:59.553Z,48.50
2019-04-06T11:38:21.302Z,45.10
2019-04-06T11:43:41.788Z,47.80
2019-04-06T11:49:10.673Z,45.90
2019-04-06T11:54:33.634Z,44.70
2019-04-06T12:00:05.727Z,41.30
2019-04-06T12:05:17.157Z,42.30
2019-04-06T12:10:26.554Z,39.90
2019-04-06T12:15:42.014Z,39.60
2019-04-06T12:21:03.822Z,39.80
2019-04-06T12:26:29.651Z,40.30
2019-04-06T12:31:52.537Z,39.80
2019-04-06T12:37:03.347Z,37.70
2019-04-06T12:47:47.302Z,37.30
2019-04-06T12:53:02.460Z,38.60
2019-04-06T13:14:36.616Z,36.20
2019-04-06T13:25:08.537Z,36.40
2019-04-06T13:41:27.997Z,33.10
2019-04-06T13:57:11.963Z,34.80
2019-04-06T14:02:41.260Z,34.00
2019-04-06T14:07:58.300Z,34.00
2019-04-06T14:13:27.237Z,34.80
2019-04-06T14:18:48.597Z,35.40
2019-04-06T14:24:00.663Z,34.60
2019-04-06T14:29:32.896Z,35.40
2019-04-06T14:35:00.237Z,35.30
2019-04-06T14:40:22.841Z,35.70
2019-04-06T14:51:14.595Z,36.30
2019-04-06T14:56:30.287Z,36.70
2019-04-06T15:01:54.719Z,37.20
2019-04-06T15:12:28.886Z,38.70
2019-04-06T15:17:41.201Z,37.90
2019-04-06T15:22:54.030Z,38.90
2019-04-06T15:33:38.030Z,39.20
2019-04-06T15:44:04.682Z,39.00
2019-04-06T15:59:50.984Z,37.90
2019-04-06T16:10:24.291Z,37.90
2019-04-06T16:21:06.963Z,41.60
2019-04-06T16:26:21.459Z,42.70
2019-04-06T16:31:34.278Z,45.50
2019-04-06T16:36:57.690Z,46.00
2019-04-06T16:42:08.852Z,43.60
2019-04-06T16:47:27.869Z,42.20
2019-04-06T16:52:56.849Z,42.60
2019-04-06T16:58:14.737Z,43.20
2019-04-06T17:03:28.628Z,45.10
2019-04-06T17:09:07.211Z,44.00
2019-04-06T17:14:27.897Z,44.60
2019-04-06T17:19:53.638Z,47.00
2019-04-06T17:25:06.387Z,47.50
2019-04-06T17:30:19.812Z,48.50
2019-04-06T17:35:43.952Z,50.00
2019-04-06T17:41:07.362Z,50.40
2019-04-06T17:46:25.757Z,50.90
2019-04-06T17:51:51.897Z,51.40
2019-04-06T17:57:17.440Z,51.70
2019-04-06T18:02:47.917Z,52.20
2019-04-06T18:07:56.991Z,53.10
2019-04-06T18:13:34.967Z,53.60
2019-04-06T18:18:38.831Z,54.20
2019-04-06T18:23:42.641Z,55.60
2019-04-06T18:28:46.474Z,56.30
2019-04-06T18:33:50.340Z,57.00
2019-04-06T18:39:01.723Z,58.30
2019-04-06T18:44:05.801Z,59.60
2019-04-06T18:49:09.918Z,60.80
2019-04-06T18:54:14.259Z,63.40
2019-04-06T18:59:18.396Z,66.10
2019-04-06T19:04:22.753Z,67.80
2019-04-06T19:09:26.908Z,68.40
2019-04-06T19:14:30.845Z,68.80
2019-04-06T19:19:35.235Z,69.90
2019-04-06T19:24:39.583Z,73.40
2019-04-06T19:29:43.952Z,73.40
2019-04-06T19:34:48.190Z,75.50
2019-04-06T19:39:52.448Z,77.00
2019-04-06T19:44:56.450Z,77.40
2019-04-06T19:50:00.614Z,78.50
2019-04-06T19:55:05.021Z,79.90
2019-04-06T20:00:09.324Z,80.90
2019-04-06T20:05:13.266Z,82.40
2019-04-06T20:10:17.221Z,83.20
2019-04-06T20:15:21.344Z,84.30
2019-04-06T20:20:25.198Z,83.50
2019-04-06T20:25:29.525Z,84.20
2019-04-06T20:30:33.513Z,83.50
2019-04-06T20:35:37.309Z,84.20
2019-04-06T20:40:41.820Z,84.80
2019-04-06T20:45:46.534Z,85.30
2019-04-06T20:50:50.787Z,86.30
2019-04-06T20:55:55.277Z,87.40
2019-04-06T21:00:59.415Z,88.40
2019-04-06T21:06:03.142Z,89.70
2019-04-06T21:11:07.195Z,90.30
2019-04-06T21:16:11.357Z,90.30
2019-04-06T21:21:15.418Z,90.70
2019-04-06T21:26:19.215Z,91.20
2019-04-06T21:31:23.200Z,91.40
2019-04-06T21:36:28.902Z,91.90
2019-04-06T21:41:32.978Z,91.90
2019-04-06T21:46:37.030Z,92.20
2019-04-06T21:51:41.015Z,92.50
2019-04-06T21:56:44.821Z,92.60
2019-04-06T22:01:49.091Z,92.90
2019-04-06T22:06:53.123Z,92.80
2019-04-06T22:11:57.177Z,92.70
2019-04-06T22:17:01.546Z,92.30
2019-04-06T22:22:05.451Z,92.20
2019-04-06T22:27:09.237Z,92.20
2019-04-06T22:32:13.109Z,92.00
2019-04-06T22:37:17.840Z,91.80
2019-04-06T22:42:21.794Z,92.10
2019-04-06T22:47:25.544Z,92.00
2019-04-06T22:52:29.293Z,92.00
2019-04-06T22:57:33.886Z,92.00
2019-04-06T23:02:55.572Z,92.20
2019-04-06T23:08:00.904Z,92.30
2019-04-06T23:13:04.814Z,92.60
2019-04-06T23:18:08.843Z,92.90
2019-04-06T23:23:13.056Z,93.30
2019-04-06T23:28:16.838Z,93.70
2019-04-06T23:33:21.204Z,94.10
2019-04-06T23:38:25.222Z,94.50
2019-04-06T23:43:29.570Z,94.70
2019-04-06T23:48:33.675Z,95.10
2019-04-06T23:53:37.870Z,95.50
2019-04-06T23:58:42.077Z,95.60
